Terminal Aerodrome Forecast
Issued by NWS Shreveport, LA

Home | Current Version | Previous Version | Text Only | Print | Product List | Glossary On
Versions: 1 2 3 4 5 6 7 8 9 10 11 12 13 14 15 16 17 18 19
000
FTUS44 KSHV 272335
TAFELD
TAF
KELD 272335Z 2800/2824 15012KT P6SM BKN100
      TEMPO 2800/2802 16015G25KT -TSRA OVC025CB
     FM280700 15006KT 5SM BR BKN020
      TEMPO 2809/2813 2SM BR OVC010
     FM281600 18008KT P6SM SCT030
      TEMPO 2816/2820 BKN020=

USA.gov is the U.S. government's official web portal to all federal, state and local government web resources and services.